x

West Gulf - 207 Nm East Of Brownsville, Tx (42002) Wave Buoy

4:50am - Fri 4th Sep 2015 All times are CDT. -5 hours from GMT.

  • Sig Wave height 2.3ft
  • Swell Direction
  • Peak Period 5s
  • Average Period 4s
  • Wind
    13mph, 16mph gusts
  • Sea Temp 85°f
  • Air Temp 84°f
  • Sea Pressure 1012.8mb
  • West Gulf - 207 Nm East Of Brownsville, Tx
  • West Gulf - 207 Nm East Of Brownsville, Tx

More Historic Weather Station data

Upgrade to MSW Pro to gain access to the past 30 days of data for over 8000 Wavebouys and Weather Stations around the globe.

Join Pro

Comparision Forecast

View Surf forecast
   
Fri 09/04 4:50am 2.5ft 5s 4s 13 16 mph 1012.8mb 85f 84f
3:50am 2.5ft 6s 4s 13 16 mph 1012.7mb 85f 84f
2:50am 2.5ft 6s 4s 16 18 mph 1012.7mb 85f 83f
1:50am 2.5ft 6s 4s 13 16 mph 1012.9mb 85f 83f
12:50am 2.5ft 6s 5s 13 16 mph 1013mb 85f 83f
Thu 09/03 11:50pm 2.5ft 6s 5s 13 16 mph 1013mb 85f 83f
10:50pm 2.5ft 6s 5s 11 13 mph 1013.1mb 85f 83f
9:50pm 2.5ft 6s 5s 9 13 mph 1012.9mb 85f 83f
8:50pm 2.5ft 6s 5s 11 16 mph 1011.9mb 85f 83f
7:50pm 2.5ft 6s 5s 9
mph
1011.8mb 85f 83f
6:50pm 2.5ft 6s 5s 9 11 mph 1012.3mb 85f 83f
5:50pm 3ft 6s 5s 4 7 mph 1012.2mb 85f 83f
4:50pm 3ft 7s 5s 2 4 mph 1012.6mb 85f 83f
3:50pm 3.5ft 7s 5s 9 11 mph 1013.4mb 85f 82f
2:50pm 3.5ft 7s 5s 7 9 mph 1013.2mb 85f 83f
1:50pm 3.5ft 7s 5s 9 13 mph 1013.5mb 85f 82f
12:50pm 4ft 6s 4s 16 18 mph 1014.2mb 85f 82f
11:50am 3ft 6s 5s 22 27 mph 1014.4mb 85f 80f
10:50am 3ft 6s 4s 4 7 mph 1015mb 85f 80f
9:50am 2.5ft 6s 4s 13 18 mph 1014.1mb 85f 85f
8:50am 2.5ft 6s 4s 13 16 mph 1013.4mb 85f 85f
7:50am 2.5ft 6s 4s 13 16 mph 1013.2mb 85f 84f
6:50am 2.5ft 6s 4s 13 16 mph 1012.9mb 85f 84f
5:50am 2.5ft 6s 4s 13 16 mph 1012.8mb 85f 84f
4:50am 3ft 6s 4s 11 13 mph 1012.9mb 85f 84f
3:50am 2.5ft 6s 4s 16 18 mph 1013.2mb 85f 83f
2:50am 2.5ft 6s 4s 18 20 mph 1013.4mb 85f 83f
1:50am 2.5ft 6s 4s 13 18 mph 1013.5mb 85f 83f
12:50am 2.5ft 6s 4s 13 16 mph 1013.7mb 85f 83f
Wed 09/02 11:50pm 2.5ft 6s 4s 16 18 mph 1014.2mb 85f 83f
10:50pm 2.5ft 6s 4s 16 18 mph 1014.2mb 85f 82f
9:50pm 2.5ft 5s 4s 13 16 mph 1014mb 85f 82f
8:50pm 2.5ft 6s 4s 16 18 mph 1013.5mb 85f 82f
7:50pm 2ft 6s 4s 16 18 mph 1013.1mb 85f 81f
6:50pm 2.5ft 5s 5s 11 13 mph 1013.6mb 85f 81f
5:50pm 2.5ft 5s 4s 11 13 mph 1013.8mb 85f 80f
4:50pm 2ft 5s 4s 7 9 mph 1014.5mb 85f 80f
3:50pm 2.5ft 5s 4s 9 11 mph 1014.2mb 84f 79f
2:50pm 2.5ft 5s 4s 7 9 mph 1015.5mb 84f 78f
1:50pm 3ft 5s 4s 4 7 mph 1017.2mb 84f 78f
12:50pm 3ft 6s 4s 7 9 mph 1017.3mb 84f 78f
11:50am 3ft 5s 4s 20 25 mph 1017.8mb 85f 76f
10:50am 2.5ft 5s 4s 13 16 mph 1017mb 85f 80f
9:50am 2.5ft 5s 4s 9 13 mph 1016.2mb 85f 79f
8:50am 2.5ft 5s 4s 9 11 mph 1015.7mb 85f 85f
7:50am 2.5ft 6s 4s 11 13 mph 1015.1mb 85f 85f
6:50am 2.5ft 5s 4s 13 16 mph 1015mb 85f 84f
5:50am 3.5ft 5s 4s 11 13 mph 1014.8mb 85f 85f
4:50am 3.5ft 5s 5s 13 18 mph 1014.4mb 85f 84f
3:50am 3.5ft 6s 4s 13 16 mph 1014.9mb 85f 84f
2:50am 3.5ft 5s 4s 16 18 mph 1015.4mb 85f 84f
1:50am 3.5ft 6s 4s 16 18 mph 1015.3mb 85f 84f
12:50am 3.5ft 5s 4s 18 20 mph 1015.9mb 85f 84f
Tue 09/01 11:50pm 4ft 5s 4s 18 20 mph 1015.9mb 85f 83f
10:50pm 3.5ft 4s 4s 20 22 mph 1016mb 85f 83f
9:50pm 3.5ft 4s 4s 20 22 mph 1015.8mb 85f 82f
8:50pm 3.5ft 6s 4s 18 22 mph 1014.8mb 85f 83f
7:50pm 3.5ft 6s 5s 18 20 mph 1014mb 85f 82f
6:50pm 3.5ft 5s 5s 16 20 mph 1013.8mb 85f 81f
5:50pm 3.5ft 6s 5s 16 18 mph 1015mb 85f 80f
4:50pm 4ft 6s 5s 18 20 mph 1015.2mb 85f 79f
3:50pm 3.5ft 6s 5s 16 20 mph 1015.9mb 85f 79f
2:50pm 2.5ft 5s 4s 16 18 mph 1016.9mb 85f 79f
1:50pm 3ft 5s 4s 4 7 mph 1017.8mb 85f 79f
12:50pm 3.5ft 5s 4s 13 16 mph 1016.7mb 85f 79f
11:50am 3.5ft 5s 4s 25 29 mph 1017.2mb 85f 80f
10:50am 2.5ft 5s 4s 16 18 mph 1016.4mb 85f 83f
9:50am 2.5ft 5s 4s 16 18 mph 1016.1mb 85f 85f
8:50am 2.5ft 5s 4s 16 18 mph 1015.7mb 85f 86f
7:50am 2.5ft 5s 4s 16 18 mph 1014.9mb 85f 86f
6:50am 2.5ft 5s 4s 13 16 mph 1014.7mb 85f 85f
5:50am 2.5ft 5s 4s 16 18 mph 1014mb 85f 85f
4:50am 2.5ft 4s 4s 13 18 mph 1014mb 85f 84f
3:50am 2.5ft 4s 4s 16 18 mph 1014.5mb 85f 85f
2:50am 2.5ft 5s 4s 16 18 mph 1014.8mb 85f 85f
1:50am 2.5ft 6s 4s 16 18 mph 1015.7mb 85f 85f
12:50am 2.5ft 6s 4s 13 18 mph 1016.3mb 85f 85f
Mon 08/31 11:50pm 2ft 6s 4s 13 18 mph 1016.3mb 85f 85f
10:50pm 2ft 6s 4s 13 16 mph 1016.3mb 85f 85f
9:50pm 2ft 6s 4s 11 13 mph 1016.1mb 85f 85f
8:50pm 2ft 6s 4s 9 11 mph 1015.6mb 85f 85f
7:50pm 2.5ft 6s 4s 7 9 mph 1015.3mb 85f 85f
6:50pm 2.5ft 6s 4s 4 7 mph 1015.1mb 85f 85f
5:50pm 2ft 6s 4s 13 16 mph 1014.3mb 85f 86f
4:50pm 2ft 6s 4s 16 18 mph 1014.2mb 85f 85f
3:50pm 1.6ft 6s 4s 13 16 mph 1014.9mb 85f 86f
2:50pm 1.6ft 6s 4s 9 13 mph 1016.4mb 85f 85f
1:50pm 1.6ft 6s 4s 9 11 mph 1016.8mb 85f 86f
12:50pm 1.6ft 6s 4s 9 11 mph 1016.6mb 85f 86f
11:50am 1.6ft 6s 4s 13 16 mph 1016.9mb 85f 86f